sensor_id;sensor_type;location;lat;lon;timestamp;pressure;altitude;pressure_sealevel;temperature;humidity
64460;BME280;50828;53.756;21.140;2023-03-12T00:02:25;98456.67;;;-2.55;67.91
64460;BME280;50828;53.756;21.140;2023-03-12T00:07:33;98454.98;;;-2.58;68.05
64460;BME280;50828;53.756;21.140;2023-03-12T00:12:41;98441.56;;;-2.60;68.30
64460;BME280;50828;53.756;21.140;2023-03-12T00:17:48;98436.06;;;-2.61;68.29
64460;BME280;50828;53.756;21.140;2023-03-12T00:22:57;98434.33;;;-2.61;68.28
64460;BME280;50828;53.756;21.140;2023-03-12T00:28:05;98431.95;;;-2.62;68.59
64460;BME280;50828;53.756;21.140;2023-03-12T00:33:14;98424.86;;;-2.62;68.62
64460;BME280;50828;53.756;21.140;2023-03-12T00:38:23;98421.25;;;-2.62;68.70
64460;BME280;50828;53.756;21.140;2023-03-12T00:43:31;98411.41;;;-2.61;68.89
64460;BME280;50828;53.756;21.140;2023-03-12T00:48:40;98413.28;;;-2.59;69.08
64460;BME280;50828;53.756;21.140;2023-03-12T00:53:49;98418.09;;;-2.57;69.40
64460;BME280;50828;53.756;21.140;2023-03-12T00:58:58;98416.98;;;-2.53;69.50
64460;BME280;50828;53.756;21.140;2023-03-12T01:04:06;98403.81;;;-2.48;69.83
64460;BME280;50828;53.756;21.140;2023-03-12T01:09:14;98393.86;;;-2.39;69.97
64460;BME280;50828;53.756;21.140;2023-03-12T01:14:21;98390.28;;;-2.31;69.96
64460;BME280;50828;53.756;21.140;2023-03-12T01:19:30;98380.64;;;-2.21;70.14
64460;BME280;50828;53.756;21.140;2023-03-12T01:24:38;98365.83;;;-2.12;69.85
64460;BME280;50828;53.756;21.140;2023-03-12T01:29:47;98355.86;;;-2.05;70.09
64460;BME280;50828;53.756;21.140;2023-03-12T01:34:58;98355.39;;;-1.97;69.82
64460;BME280;50828;53.756;21.140;2023-03-12T01:40:10;98352.00;;;-1.91;70.02
64460;BME280;50828;53.756;21.140;2023-03-12T01:51:07;98338.39;;;-1.73;70.32
64460;BME280;50828;53.756;21.140;2023-03-12T01:56:18;98331.89;;;-1.68;70.73
64460;BME280;50828;53.756;21.140;2023-03-12T02:01:28;98328.72;;;-1.63;71.30
64460;BME280;50828;53.756;21.140;2023-03-12T02:06:40;98328.16;;;-1.61;71.37
64460;BME280;50828;53.756;21.140;2023-03-12T02:11:51;98329.67;;;-1.59;71.65
64460;BME280;50828;53.756;21.140;2023-03-12T02:17:00;98334.31;;;-1.58;71.48
64460;BME280;50828;53.756;21.140;2023-03-12T02:22:08;98332.72;;;-1.57;72.07
64460;BME280;50828;53.756;21.140;2023-03-12T02:27:19;98334.23;;;-1.54;72.24
64460;BME280;50828;53.756;21.140;2023-03-12T02:32:31;98335.19;;;-1.50;72.49
64460;BME280;50828;53.756;21.140;2023-03-12T02:37:50;98338.70;;;-1.45;72.36
64460;BME280;50828;53.756;21.140;2023-03-12T02:42:59;98333.60;;;-1.40;72.55
64460;BME280;50828;53.756;21.140;2023-03-12T02:48:09;98345.12;;;-1.38;72.18
64460;BME280;50828;53.756;21.140;2023-03-12T02:53:17;98342.02;;;-1.38;72.31
64460;BME280;50828;53.756;21.140;2023-03-12T02:58:26;98346.02;;;-1.32;72.51
64460;BME280;50828;53.756;21.140;2023-03-12T03:03:35;98344.21;;;-1.26;72.52
64460;BME280;50828;53.756;21.140;2023-03-12T03:08:44;98344.48;;;-1.23;72.33
64460;BME280;50828;53.756;21.140;2023-03-12T03:13:53;98346.30;;;-1.19;72.55
64460;BME280;50828;53.756;21.140;2023-03-12T03:19:02;98344.80;;;-1.13;72.78
64460;BME280;50828;53.756;21.140;2023-03-12T03:24:11;98351.21;;;-1.06;72.47
64460;BME280;50828;53.756;21.140;2023-03-12T03:29:19;98347.96;;;-1.00;72.80
64460;BME280;50828;53.756;21.140;2023-03-12T03:34:28;98353.14;;;-0.91;72.88
64460;BME280;50828;53.756;21.140;2023-03-12T03:39:37;98348.84;;;-0.84;72.94
64460;BME280;50828;53.756;21.140;2023-03-12T03:44:46;98350.27;;;-0.79;72.97
64460;BME280;50828;53.756;21.140;2023-03-12T03:49:54;98354.02;;;-0.77;72.67
64460;BME280;50828;53.756;21.140;2023-03-12T03:55:03;98353.81;;;-0.75;72.85
64460;BME280;50828;53.756;21.140;2023-03-12T04:00:14;98356.68;;;-0.72;73.09
64460;BME280;50828;53.756;21.140;2023-03-12T04:05:24;98358.74;;;-0.72;73.33
64460;BME280;50828;53.756;21.140;2023-03-12T04:10:32;98363.23;;;-0.71;73.22
64460;BME280;50828;53.756;21.140;2023-03-12T04:15:47;98371.01;;;-0.72;73.34
64460;BME280;50828;53.756;21.140;2023-03-12T04:20:56;98372.09;;;-0.72;73.39
64460;BME280;50828;53.756;21.140;2023-03-12T04:26:06;98376.60;;;-0.73;73.36
64460;BME280;50828;53.756;21.140;2023-03-12T04:31:14;98380.77;;;-0.74;73.59
64460;BME280;50828;53.756;21.140;2023-03-12T04:36:28;98383.49;;;-0.72;73.49
64460;BME280;50828;53.756;21.140;2023-03-12T04:41:37;98387.95;;;-0.71;73.70
64460;BME280;50828;53.756;21.140;2023-03-12T04:46:48;98392.59;;;-0.70;73.61
64460;BME280;50828;53.756;21.140;2023-03-12T04:51:59;98392.27;;;-0.71;73.55
64460;BME280;50828;53.756;21.140;2023-03-12T04:57:07;98390.43;;;-0.74;73.10
64460;BME280;50828;53.756;21.140;2023-03-12T05:02:15;98393.45;;;-0.78;72.71
64460;BME280;50828;53.756;21.140;2023-03-12T05:07:24;98402.05;;;-0.83;72.49
64460;BME280;50828;53.756;21.140;2023-03-12T05:12:33;98409.43;;;-0.89;72.05
64460;BME280;50828;53.756;21.140;2023-03-12T05:17:41;98405.73;;;-0.94;71.89
64460;BME280;50828;53.756;21.140;2023-03-12T05:22:50;98408.06;;;-0.98;71.59
64460;BME280;50828;53.756;21.140;2023-03-12T05:27:58;98418.69;;;-1.02;71.39
64460;BME280;50828;53.756;21.140;2023-03-12T05:33:07;98421.17;;;-1.05;71.40
64460;BME280;50828;53.756;21.140;2023-03-12T05:38:14;98423.43;;;-1.06;71.37
64460;BME280;50828;53.756;21.140;2023-03-12T05:43:23;98434.13;;;-1.05;71.42
64460;BME280;50828;53.756;21.140;2023-03-12T05:48:31;98433.58;;;-1.03;71.23
64460;BME280;50828;53.756;21.140;2023-03-12T05:53:45;98437.70;;;-1.02;70.95
64460;BME280;50828;53.756;21.140;2023-03-12T05:58:54;98441.17;;;-1.03;70.81
64460;BME280;50828;53.756;21.140;2023-03-12T06:04:02;98443.73;;;-1.01;70.80
64460;BME280;50828;53.756;21.140;2023-03-12T06:09:10;98448.18;;;-0.99;70.65
64460;BME280;50828;53.756;21.140;2023-03-12T06:14:19;98456.77;;;-0.96;70.79
64460;BME280;50828;53.756;21.140;2023-03-12T06:19:27;98463.79;;;-0.93;70.81
64460;BME280;50828;53.756;21.140;2023-03-12T06:24:35;98469.93;;;-0.89;70.61
64460;BME280;50828;53.756;21.140;2023-03-12T06:29:45;98484.42;;;-0.87;70.37
64460;BME280;50828;53.756;21.140;2023-03-12T06:34:53;98495.34;;;-0.89;69.92
64460;BME280;50828;53.756;21.140;2023-03-12T06:40:02;98502.30;;;-0.92;69.96
64460;BME280;50828;53.756;21.140;2023-03-12T06:45:15;98521.66;;;-0.91;69.82
64460;BME280;50828;53.756;21.140;2023-03-12T06:50:24;98529.58;;;-0.91;70.00
64460;BME280;50828;53.756;21.140;2023-03-12T06:55:32;98538.87;;;-0.88;70.03
64460;BME280;50828;53.756;21.140;2023-03-12T07:00:41;98535.48;;;-0.92;69.77
64460;BME280;50828;53.756;21.140;2023-03-12T07:05:50;98545.02;;;-0.84;69.50
64460;BME280;50828;53.756;21.140;2023-03-12T07:11:00;98552.39;;;-0.81;69.45
64460;BME280;50828;53.756;21.140;2023-03-12T07:16:09;98551.10;;;-0.76;69.38
64460;BME280;50828;53.756;21.140;2023-03-12T07:21:18;98557.38;;;-0.71;69.30
64460;BME280;50828;53.756;21.140;2023-03-12T07:26:30;98560.40;;;-0.66;68.93
64460;BME280;50828;53.756;21.140;2023-03-12T07:31:38;98571.75;;;-0.63;69.33
64460;BME280;50828;53.756;21.140;2023-03-12T07:36:46;98581.40;;;-0.61;69.10
64460;BME280;50828;53.756;21.140;2023-03-12T07:41:55;98577.76;;;-0.60;69.10
64460;BME280;50828;53.756;21.140;2023-03-12T07:47:03;98581.37;;;-0.60;69.08
64460;BME280;50828;53.756;21.140;2023-03-12T07:52:29;98586.89;;;-0.59;69.00
64460;BME280;50828;53.756;21.140;2023-03-12T07:57:37;98594.44;;;-0.56;69.06
64460;BME280;50828;53.756;21.140;2023-03-12T08:02:46;98598.45;;;-0.58;68.36
64460;BME280;50828;53.756;21.140;2023-03-12T08:07:56;98608.16;;;-0.59;68.37
64460;BME280;50828;53.756;21.140;2023-03-12T08:13:04;98613.02;;;-0.60;68.17
64460;BME280;50828;53.756;21.140;2023-03-12T08:18:11;98621.46;;;-0.58;68.17
64460;BME280;50828;53.756;21.140;2023-03-12T08:23:21;98627.31;;;-0.57;68.28
64460;BME280;50828;53.756;21.140;2023-03-12T08:28:30;98628.70;;;-0.56;68.21
64460;BME280;50828;53.756;21.140;2023-03-12T08:33:39;98637.63;;;-0.53;68.86
64460;BME280;50828;53.756;21.140;2023-03-12T08:38:49;98646.23;;;-0.50;69.51
64460;BME280;50828;53.756;21.140;2023-03-12T08:43:58;98657.61;;;-0.49;69.72
64460;BME280;50828;53.756;21.140;2023-03-12T08:49:07;98661.96;;;-0.50;70.18
64460;BME280;50828;53.756;21.140;2023-03-12T08:54:15;98667.71;;;-0.52;70.40
64460;BME280;50828;53.756;21.140;2023-03-12T08:59:24;98674.47;;;-0.54;70.66
64460;BME280;50828;53.756;21.140;2023-03-12T09:04:32;98676.57;;;-0.54;70.69
64460;BME280;50828;53.756;21.140;2023-03-12T09:09:41;98678.11;;;-0.53;70.74
64460;BME280;50828;53.756;21.140;2023-03-12T09:14:50;98680.66;;;-0.52;70.81
64460;BME280;50828;53.756;21.140;2023-03-12T09:20:15;98685.97;;;-0.47;70.63
64460;BME280;50828;53.756;21.140;2023-03-12T09:25:24;98685.20;;;-0.44;70.47
64460;BME280;50828;53.756;21.140;2023-03-12T09:30:34;98687.46;;;-0.45;70.37
64460;BME280;50828;53.756;21.140;2023-03-12T09:35:43;98690.59;;;-0.45;70.02
64460;BME280;50828;53.756;21.140;2023-03-12T09:40:51;98688.73;;;-0.47;69.62
64460;BME280;50828;53.756;21.140;2023-03-12T09:46:01;98695.86;;;-0.50;69.28
64460;BME280;50828;53.756;21.140;2023-03-12T09:51:19;98706.25;;;-0.51;69.11
64460;BME280;50828;53.756;21.140;2023-03-12T09:56:30;98712.10;;;-0.49;68.90
64460;BME280;50828;53.756;21.140;2023-03-12T10:01:43;98721.90;;;-0.46;68.64
64460;BME280;50828;53.756;21.140;2023-03-12T10:06:58;98728.39;;;-0.41;68.58
64460;BME280;50828;53.756;21.140;2023-03-12T10:12:18;98741.08;;;-0.35;68.24
64460;BME280;50828;53.756;21.140;2023-03-12T10:17:44;98745.70;;;-0.32;67.76
64460;BME280;50828;53.756;21.140;2023-03-12T10:23:02;98756.70;;;-0.27;67.23
64460;BME280;50828;53.756;21.140;2023-03-12T10:28:18;98759.34;;;-0.21;67.11
64460;BME280;50828;53.756;21.140;2023-03-12T10:33:38;98767.48;;;-0.11;66.81
64460;BME280;50828;53.756;21.140;2023-03-12T10:38:47;98783.60;;;-0.04;65.74
64460;BME280;50828;53.756;21.140;2023-03-12T10:43:57;98788.04;;;-0.00;65.31
64460;BME280;50828;53.756;21.140;2023-03-12T10:49:39;98789.17;;;0.04;65.14
64460;BME280;50828;53.756;21.140;2023-03-12T10:54:49;98804.13;;;0.10;65.23
64460;BME280;50828;53.756;21.140;2023-03-12T11:00:08;98808.97;;;0.20;65.41
64460;BME280;50828;53.756;21.140;2023-03-12T11:05:24;98815.02;;;0.29;64.78
64460;BME280;50828;53.756;21.140;2023-03-12T11:10:44;98819.10;;;0.33;64.53
64460;BME280;50828;53.756;21.140;2023-03-12T11:15:54;98819.78;;;0.34;64.47
64460;BME280;50828;53.756;21.140;2023-03-12T11:21:19;98827.85;;;0.37;64.77
64460;BME280;50828;53.756;21.140;2023-03-12T11:26:32;98826.58;;;0.41;64.40
64460;BME280;50828;53.756;21.140;2023-03-12T11:31:44;98829.23;;;0.47;64.30
64460;BME280;50828;53.756;21.140;2023-03-12T11:37:05;98835.69;;;0.53;63.92
64460;BME280;50828;53.756;21.140;2023-03-12T11:42:21;98844.90;;;0.60;63.82
64460;BME280;50828;53.756;21.140;2023-03-12T11:47:42;98862.97;;;0.66;63.18
64460;BME280;50828;53.756;21.140;2023-03-12T11:53:12;98863.45;;;0.69;62.46
64460;BME280;50828;53.756;21.140;2023-03-12T11:58:47;98868.77;;;0.71;62.47
64460;BME280;50828;53.756;21.140;2023-03-12T12:04:35;98872.71;;;0.73;62.11
64460;BME280;50828;53.756;21.140;2023-03-12T12:09:52;98865.61;;;0.73;61.89
64460;BME280;50828;53.756;21.140;2023-03-12T12:15:17;98868.36;;;0.75;62.23
64460;BME280;50828;53.756;21.140;2023-03-12T12:20:39;98880.77;;;0.78;61.73
64460;BME280;50828;53.756;21.140;2023-03-12T12:26:07;98903.27;;;0.80;61.60
64460;BME280;50828;53.756;21.140;2023-03-12T12:31:25;98916.95;;;0.80;61.29
64460;BME280;50828;53.756;21.140;2023-03-12T12:36:37;98922.91;;;0.77;61.29
64460;BME280;50828;53.756;21.140;2023-03-12T12:41:49;98925.92;;;0.73;61.64
64460;BME280;50828;53.756;21.140;2023-03-12T12:46:57;98931.11;;;0.73;62.14
64460;BME280;50828;53.756;21.140;2023-03-12T12:52:09;98935.77;;;0.75;61.91
64460;BME280;50828;53.756;21.140;2023-03-12T12:57:20;98941.45;;;0.77;61.66
64460;BME280;50828;53.756;21.140;2023-03-12T13:02:38;98942.27;;;0.80;61.00
64460;BME280;50828;53.756;21.140;2023-03-12T13:07:47;98948.07;;;0.85;60.70
64460;BME280;50828;53.756;21.140;2023-03-12T13:12:57;98954.33;;;0.92;60.71
64460;BME280;50828;53.756;21.140;2023-03-12T13:18:08;98958.16;;;1.00;59.45
64460;BME280;50828;53.756;21.140;2023-03-12T13:23:33;98972.79;;;1.06;59.08
64460;BME280;50828;53.756;21.140;2023-03-12T13:29:11;98973.23;;;1.10;58.99
64460;BME280;50828;53.756;21.140;2023-03-12T13:34:45;98985.81;;;1.14;58.23
64460;BME280;50828;53.756;21.140;2023-03-12T13:39:53;99004.13;;;1.17;57.38
64460;BME280;50828;53.756;21.140;2023-03-12T13:50:32;99011.16;;;1.30;57.04
64460;BME280;50828;53.756;21.140;2023-03-12T13:55:47;99019.70;;;1.36;56.20
64460;BME280;50828;53.756;21.140;2023-03-12T14:00:59;99027.08;;;1.41;56.09
64460;BME280;50828;53.756;21.140;2023-03-12T14:06:11;99044.69;;;1.45;55.77
64460;BME280;50828;53.756;21.140;2023-03-12T14:16:43;99053.23;;;1.43;54.33
64460;BME280;50828;53.756;21.140;2023-03-12T14:21:56;99055.42;;;1.38;54.13
64460;BME280;50828;53.756;21.140;2023-03-12T14:27:14;99067.13;;;1.33;54.41
64460;BME280;50828;53.756;21.140;2023-03-12T14:32:27;99071.17;;;1.31;54.27
64460;BME280;50828;53.756;21.140;2023-03-12T14:37:41;99075.54;;;1.28;54.27
64460;BME280;50828;53.756;21.140;2023-03-12T14:42:52;99078.52;;;1.27;54.66
64460;BME280;50828;53.756;21.140;2023-03-12T14:48:01;99084.73;;;1.28;54.64
64460;BME280;50828;53.756;21.140;2023-03-12T14:53:19;99085.97;;;1.27;54.25
64460;BME280;50828;53.756;21.140;2023-03-12T14:58:30;99090.53;;;1.25;53.87
64460;BME280;50828;53.756;21.140;2023-03-12T15:03:43;99096.66;;;1.22;54.00
64460;BME280;50828;53.756;21.140;2023-03-12T15:08:53;99100.34;;;1.19;53.99
64460;BME280;50828;53.756;21.140;2023-03-12T15:14:05;99107.47;;;1.19;54.19
64460;BME280;50828;53.756;21.140;2023-03-12T15:19:17;99116.69;;;1.17;54.11
64460;BME280;50828;53.756;21.140;2023-03-12T15:24:25;99110.77;;;1.09;53.95
64460;BME280;50828;53.756;21.140;2023-03-12T15:29:41;99123.21;;;1.11;52.78
64460;BME280;50828;53.756;21.140;2023-03-12T15:34:50;99125.04;;;1.06;53.31
64460;BME280;50828;53.756;21.140;2023-03-12T15:40:01;99127.52;;;1.02;53.59
64460;BME280;50828;53.756;21.140;2023-03-12T15:45:19;99133.13;;;0.99;53.65
64460;BME280;50828;53.756;21.140;2023-03-12T15:50:33;99137.34;;;0.96;53.52
64460;BME280;50828;53.756;21.140;2023-03-12T15:55:57;99138.44;;;0.93;53.24
64460;BME280;50828;53.756;21.140;2023-03-12T16:01:13;99141.65;;;0.87;53.10
64460;BME280;50828;53.756;21.140;2023-03-12T16:06:24;99144.52;;;0.81;53.11
64460;BME280;50828;53.756;21.140;2023-03-12T16:11:37;99144.09;;;0.75;53.24
64460;BME280;50828;53.756;21.140;2023-03-12T16:16:45;99146.98;;;0.68;53.12
64460;BME280;50828;53.756;21.140;2023-03-12T16:21:53;99147.61;;;0.60;53.23
64460;BME280;50828;53.756;21.140;2023-03-12T16:27:01;99149.10;;;0.53;53.05
64460;BME280;50828;53.756;21.140;2023-03-12T16:32:14;99152.85;;;0.45;53.47
64460;BME280;50828;53.756;21.140;2023-03-12T16:37:24;99159.34;;;0.40;53.88
64460;BME280;50828;53.756;21.140;2023-03-12T16:42:32;99159.28;;;0.32;53.89
64460;BME280;50828;53.756;21.140;2023-03-12T16:47:40;99165.41;;;0.27;54.19
64460;BME280;50828;53.756;21.140;2023-03-12T16:52:50;99170.34;;;0.21;54.33
64460;BME280;50828;53.756;21.140;2023-03-12T16:58:00;99174.40;;;0.15;54.73
64460;BME280;50828;53.756;21.140;2023-03-12T17:03:19;99180.77;;;0.05;55.04
64460;BME280;50828;53.756;21.140;2023-03-12T17:08:28;99191.95;;;-0.05;54.98
64460;BME280;50828;53.756;21.140;2023-03-12T17:13:37;99205.04;;;-0.14;55.04
64460;BME280;50828;53.756;21.140;2023-03-12T17:18:45;99222.47;;;-0.26;54.79
64460;BME280;50828;53.756;21.140;2023-03-12T17:23:52;99224.68;;;-0.38;54.91
64460;BME280;50828;53.756;21.140;2023-03-12T17:29:01;99238.80;;;-0.50;55.05
64460;BME280;50828;53.756;21.140;2023-03-12T17:34:10;99251.04;;;-0.65;55.11
64460;BME280;50828;53.756;21.140;2023-03-12T17:39:18;99254.46;;;-0.81;55.29
64460;BME280;50828;53.756;21.140;2023-03-12T17:44:26;99247.84;;;-0.96;55.06
64460;BME280;50828;53.756;21.140;2023-03-12T17:49:40;99237.23;;;-1.13;54.62
64460;BME280;50828;53.756;21.140;2023-03-12T17:54:50;99233.71;;;-1.31;54.68
64460;BME280;50828;53.756;21.140;2023-03-12T17:59:59;99233.30;;;-1.48;54.61
64460;BME280;50828;53.756;21.140;2023-03-12T18:05:16;99233.38;;;-1.66;54.63
64460;BME280;50828;53.756;21.140;2023-03-12T18:10:24;99241.91;;;-1.82;54.84
64460;BME280;50828;53.756;21.140;2023-03-12T18:15:32;99251.81;;;-1.98;55.35
64460;BME280;50828;53.756;21.140;2023-03-12T18:20:40;99256.33;;;-2.12;55.67
64460;BME280;50828;53.756;21.140;2023-03-12T18:25:50;99263.61;;;-2.25;56.02
64460;BME280;50828;53.756;21.140;2023-03-12T18:30:59;99270.02;;;-2.38;56.65
64460;BME280;50828;53.756;21.140;2023-03-12T18:36:08;99272.09;;;-2.47;56.79
64460;BME280;50828;53.756;21.140;2023-03-12T18:41:16;99284.68;;;-2.55;57.17
64460;BME280;50828;53.756;21.140;2023-03-12T18:46:26;99291.08;;;-2.63;57.33
64460;BME280;50828;53.756;21.140;2023-03-12T18:51:35;99294.34;;;-2.68;57.63
64460;BME280;50828;53.756;21.140;2023-03-12T18:56:43;99297.09;;;-2.75;58.09
64460;BME280;50828;53.756;21.140;2023-03-12T19:01:51;99297.09;;;-2.82;58.25
64460;BME280;50828;53.756;21.140;2023-03-12T19:07:00;99308.61;;;-2.88;58.27
64460;BME280;50828;53.756;21.140;2023-03-12T19:12:09;99313.10;;;-2.94;58.35
64460;BME280;50828;53.756;21.140;2023-03-12T19:17:17;99299.64;;;-3.00;58.77
64460;BME280;50828;53.756;21.140;2023-03-12T19:22:25;99300.67;;;-3.04;59.15
64460;BME280;50828;53.756;21.140;2023-03-12T19:27:34;99309.97;;;-3.09;59.33
64460;BME280;50828;53.756;21.140;2023-03-12T19:32:42;99311.86;;;-3.11;59.63
64460;BME280;50828;53.756;21.140;2023-03-12T19:37:50;99314.27;;;-3.13;59.72
64460;BME280;50828;53.756;21.140;2023-03-12T19:42:59;99313.92;;;-3.14;59.93
64460;BME280;50828;53.756;21.140;2023-03-12T19:48:07;99312.02;;;-3.15;60.26
64460;BME280;50828;53.756;21.140;2023-03-12T19:53:15;99319.09;;;-3.14;60.29
64460;BME280;50828;53.756;21.140;2023-03-12T19:58:24;99326.33;;;-3.14;60.32
64460;BME280;50828;53.756;21.140;2023-03-12T20:03:33;99331.15;;;-3.13;60.49
64460;BME280;50828;53.756;21.140;2023-03-12T20:08:48;99328.57;;;-3.14;60.61
64460;BME280;50828;53.756;21.140;2023-03-12T20:13:55;99332.70;;;-3.15;60.82
64460;BME280;50828;53.756;21.140;2023-03-12T20:19:02;99333.71;;;-3.17;60.86
64460;BME280;50828;53.756;21.140;2023-03-12T20:24:11;99330.80;;;-3.17;60.89
64460;BME280;50828;53.756;21.140;2023-03-12T20:29:20;99327.16;;;-3.19;61.12
64460;BME280;50828;53.756;21.140;2023-03-12T20:34:29;99325.44;;;-3.21;61.23
64460;BME280;50828;53.756;21.140;2023-03-12T20:39:37;99330.60;;;-3.23;61.34
64460;BME280;50828;53.756;21.140;2023-03-12T20:44:45;99332.48;;;-3.25;61.48
64460;BME280;50828;53.756;21.140;2023-03-12T20:49:54;99323.71;;;-3.26;61.50
64460;BME280;50828;53.756;21.140;2023-03-12T20:55:03;99324.05;;;-3.28;61.52
64460;BME280;50828;53.756;21.140;2023-03-12T21:00:13;99327.65;;;-3.31;61.63
64460;BME280;50828;53.756;21.140;2023-03-12T21:05:21;99315.42;;;-3.33;61.55
64460;BME280;50828;53.756;21.140;2023-03-12T21:10:30;99316.80;;;-3.31;61.63
64460;BME280;50828;53.756;21.140;2023-03-12T21:15:39;99313.90;;;-3.20;61.85
64460;BME280;50828;53.756;21.140;2023-03-12T21:20:48;99318.91;;;-3.15;61.62
64460;BME280;50828;53.756;21.140;2023-03-12T21:26:00;99322.18;;;-3.15;61.34
64460;BME280;50828;53.756;21.140;2023-03-12T21:31:15;99324.07;;;-3.17;61.33
64460;BME280;50828;53.756;21.140;2023-03-12T21:36:24;99319.59;;;-3.19;61.19
64460;BME280;50828;53.756;21.140;2023-03-12T21:41:33;99311.48;;;-3.22;61.26
64460;BME280;50828;53.756;21.140;2023-03-12T21:46:41;99315.45;;;-3.23;61.30
64460;BME280;50828;53.756;21.140;2023-03-12T21:51:50;99312.67;;;-3.25;61.44
64460;BME280;50828;53.756;21.140;2023-03-12T21:56:58;99297.36;;;-3.28;61.57
64460;BME280;50828;53.756;21.140;2023-03-12T22:02:10;99303.89;;;-3.29;61.83
64460;BME280;50828;53.756;21.140;2023-03-12T22:07:19;99306.83;;;-3.29;61.67
64460;BME280;50828;53.756;21.140;2023-03-12T22:12:27;99302.88;;;-3.17;62.45
64460;BME280;50828;53.756;21.140;2023-03-12T22:17:36;99295.85;;;-3.02;62.42
64460;BME280;50828;53.756;21.140;2023-03-12T22:22:45;99286.23;;;-2.94;62.12
64460;BME280;50828;53.756;21.140;2023-03-12T22:27:53;99284.84;;;-2.89;61.93
64460;BME280;50828;53.756;21.140;2023-03-12T22:33:02;99274.16;;;-2.89;61.79
64460;BME280;50828;53.756;21.140;2023-03-12T22:38:10;99273.30;;;-2.91;61.59
64460;BME280;50828;53.756;21.140;2023-03-12T22:43:18;99269.85;;;-2.95;61.58
64460;BME280;50828;53.756;21.140;2023-03-12T22:48:26;99266.56;;;-3.01;61.60
64460;BME280;50828;53.756;21.140;2023-03-12T22:53:33;99267.27;;;-3.05;61.83
64460;BME280;50828;53.756;21.140;2023-03-12T22:58:41;99265.19;;;-3.09;61.99
64460;BME280;50828;53.756;21.140;2023-03-12T23:03:49;99277.23;;;-3.12;62.03
64460;BME280;50828;53.756;21.140;2023-03-12T23:08:58;99284.11;;;-3.15;62.23
64460;BME280;50828;53.756;21.140;2023-03-12T23:14:06;99271.19;;;-3.18;62.22
64460;BME280;50828;53.756;21.140;2023-03-12T23:19:14;99254.15;;;-3.09;62.88
64460;BME280;50828;53.756;21.140;2023-03-12T23:24:23;99242.45;;;-2.93;63.08
64460;BME280;50828;53.756;21.140;2023-03-12T23:29:33;99248.84;;;-2.86;62.66
64460;BME280;50828;53.756;21.140;2023-03-12T23:34:41;99247.45;;;-2.84;62.11
64460;BME280;50828;53.756;21.140;2023-03-12T23:39:50;99243.15;;;-2.86;61.76
64460;BME280;50828;53.756;21.140;2023-03-12T23:45:00;99233.50;;;-2.92;61.69
64460;BME280;50828;53.756;21.140;2023-03-12T23:50:11;99225.39;;;-2.99;61.95
64460;BME280;50828;53.756;21.140;2023-03-12T23:55:20;99237.11;;;-3.07;61.98
